createdAt,value
2017-09-14T00:00:23.141Z,941.99
2017-09-14T00:01:23.143Z,941.88
2017-09-14T00:02:23.145Z,941.88
2017-09-14T00:03:23.114Z,941.88
2017-09-14T00:04:23.122Z,941.83
2017-09-14T00:05:23.097Z,941.91
2017-09-14T00:06:23.089Z,941.8
2017-09-14T00:07:23.078Z,941.73
2017-09-14T00:08:23.070Z,941.63
2017-09-14T00:09:23.058Z,941.66
2017-09-14T00:10:23.052Z,941.62
2017-09-14T00:11:23.061Z,941.7
2017-09-14T00:12:23.034Z,941.68
2017-09-14T00:13:23.028Z,941.52
2017-09-14T00:14:23.037Z,941.51
2017-09-14T00:15:23.010Z,941.41
2017-09-14T00:16:23.017Z,941.45
2017-09-14T00:17:23.001Z,941.53
2017-09-14T00:18:22.984Z,941.5
2017-09-14T00:19:22.970Z,941.3
2017-09-14T00:20:22.976Z,941.31
2017-09-14T00:21:22.952Z,941.34
2017-09-14T00:22:22.946Z,941.22
2017-09-14T00:23:22.936Z,941.23
2017-09-14T00:24:22.926Z,941.3
2017-09-14T00:25:22.918Z,941.31
2017-09-14T00:26:22.916Z,941.29
2017-09-14T00:27:22.899Z,941.18
2017-09-14T00:28:22.893Z,941.33
2017-09-14T00:29:22.883Z,941.31
2017-09-14T00:30:22.873Z,941.52
2017-09-14T00:31:22.875Z,941.43
2017-09-14T00:32:22.855Z,941.44
2017-09-14T00:33:22.846Z,941.48
2017-09-14T00:34:22.838Z,941.19
2017-09-14T00:35:22.828Z,941.14
2017-09-14T00:36:22.837Z,941.24
2017-09-14T00:37:22.812Z,941.36
2017-09-14T00:38:22.805Z,941.35
2017-09-14T00:39:22.793Z,941.33
2017-09-14T00:40:22.784Z,941.42
2017-09-14T00:41:22.776Z,941.49
2017-09-14T00:42:22.766Z,941.65
2017-09-14T00:43:22.757Z,941.79
2017-09-14T00:44:22.751Z,941.85
2017-09-14T00:45:22.740Z,941.99
2017-09-14T00:46:22.751Z,941.96
2017-09-14T00:47:22.724Z,941.95
2017-09-14T00:48:22.729Z,942
2017-09-14T00:49:22.705Z,941.95
2017-09-14T00:50:22.696Z,941.99
2017-09-14T00:51:22.687Z,941.98
2017-09-14T00:52:22.685Z,941.96
2017-09-14T00:53:22.670Z,941.9
2017-09-14T00:54:22.662Z,941.94
2017-09-14T00:55:22.651Z,941.96
2017-09-14T00:56:22.656Z,941.93
2017-09-14T00:57:22.635Z,941.96
2017-09-14T00:58:22.626Z,941.91
2017-09-14T00:59:22.618Z,941.88
2017-09-14T01:00:22.611Z,942.04
2017-09-14T01:01:22.617Z,942.05
2017-09-14T01:02:22.609Z,942.08
2017-09-14T01:03:22.583Z,942.14
2017-09-14T01:04:22.572Z,942.18
2017-09-14T01:05:22.563Z,942.1
2017-09-14T01:06:22.575Z,942.06
2017-09-14T01:07:22.547Z,942.11
2017-09-14T01:08:22.558Z,942.08
2017-09-14T01:09:22.529Z,941.99
2017-09-14T01:10:22.537Z,942.05
2017-09-14T01:11:22.512Z,942.1
2017-09-14T01:12:22.546Z,942.09
2017-09-14T01:13:22.493Z,942
2017-09-14T01:14:22.484Z,941.92
2017-09-14T01:15:22.477Z,941.99
2017-09-14T01:16:22.467Z,941.99
2017-09-14T01:17:22.460Z,942.07
2017-09-14T01:18:22.532Z,942.22
2017-09-14T01:19:22.484Z,942.17
2017-09-14T01:20:22.516Z,942.11
2017-09-14T01:21:22.423Z,942.13
2017-09-14T01:22:22.472Z,942.12
2017-09-14T01:23:22.471Z,942.08
2017-09-14T01:24:22.460Z,941.91
2017-09-14T01:25:22.441Z,941.89
2017-09-14T01:26:22.378Z,941.87
2017-09-14T01:27:22.428Z,941.88
2017-09-14T01:28:22.361Z,941.96
2017-09-14T01:29:22.393Z,941.84
2017-09-14T01:30:22.343Z,941.82
2017-09-14T01:31:22.386Z,941.88
2017-09-14T01:32:22.351Z,941.82
2017-09-14T01:33:22.361Z,941.88
2017-09-14T01:34:22.335Z,941.89
2017-09-14T01:35:22.390Z,941.9
2017-09-14T01:36:22.291Z,941.81
2017-09-14T01:37:22.282Z,941.74
2017-09-14T01:38:22.387Z,941.7
2017-09-14T01:39:22.300Z,941.7
2017-09-14T01:40:22.298Z,941.76
2017-09-14T01:41:22.308Z,941.74
2017-09-14T01:42:22.261Z,941.63
2017-09-14T01:43:22.230Z,941.55
2017-09-14T01:44:22.264Z,941.67
2017-09-14T01:45:22.264Z,941.58
2017-09-14T01:46:22.257Z,941.65
2017-09-14T01:47:22.258Z,941.63
2017-09-14T01:48:22.239Z,941.71
2017-09-14T01:49:22.272Z,941.79
2017-09-14T01:50:22.217Z,941.79
2017-09-14T01:51:22.199Z,941.67
2017-09-14T01:52:22.195Z,941.64
2017-09-14T01:53:22.160Z,941.55
2017-09-14T01:54:22.183Z,941.5
2017-09-14T01:55:22.122Z,941.46
2017-09-14T01:56:22.116Z,941.46
2017-09-14T01:57:22.114Z,941.41
2017-09-14T01:58:22.199Z,941.39
2017-09-14T01:59:22.088Z,941.39
2017-09-14T02:00:22.080Z,941.3
2017-09-14T02:01:22.091Z,941.26
2017-09-14T02:02:22.078Z,941.38
2017-09-14T02:03:22.053Z,941.32
2017-09-14T02:04:22.045Z,941.45
2017-09-14T02:05:22.037Z,941.45
2017-09-14T02:06:22.029Z,941.5
2017-09-14T02:07:22.018Z,941.5
2017-09-14T02:08:22.010Z,941.53
2017-09-14T02:09:22.020Z,941.54
2017-09-14T02:10:21.991Z,941.64
2017-09-14T02:11:21.984Z,941.62
2017-09-14T02:12:21.975Z,941.61
2017-09-14T02:13:21.965Z,941.67
2017-09-14T02:14:21.957Z,941.58
2017-09-14T02:15:21.948Z,941.54
2017-09-14T02:16:21.940Z,941.55
2017-09-14T02:17:21.930Z,941.5
2017-09-14T02:18:21.923Z,941.44
2017-09-14T02:19:21.925Z,941.44
2017-09-14T02:20:21.906Z,941.38
2017-09-14T02:21:21.897Z,941.33
2017-09-14T02:22:21.888Z,941.38
2017-09-14T02:23:21.880Z,941.36
2017-09-14T02:24:21.870Z,941.29
2017-09-14T02:25:21.861Z,941.14
2017-09-14T02:26:21.882Z,941.11
2017-09-14T02:27:21.844Z,941.1
2017-09-14T02:28:21.844Z,941.02
2017-09-14T02:29:21.827Z,941
2017-09-14T02:30:21.818Z,941.18
2017-09-14T02:31:21.809Z,941.16
2017-09-14T02:32:21.800Z,941.1
2017-09-14T02:33:21.792Z,941.07
2017-09-14T02:34:21.783Z,940.95
2017-09-14T02:35:21.774Z,940.96
2017-09-14T02:36:21.765Z,940.88
2017-09-14T02:37:21.758Z,940.8
2017-09-14T02:38:21.749Z,940.74
2017-09-14T02:39:21.737Z,940.76
2017-09-14T02:40:21.731Z,940.78
2017-09-14T02:41:21.722Z,940.74
2017-09-14T02:42:21.730Z,940.7
2017-09-14T02:43:21.706Z,940.7
2017-09-14T02:44:21.697Z,940.72
2017-09-14T02:45:21.691Z,940.77
2017-09-14T02:46:22.003Z,940.81
2017-09-14T02:47:21.670Z,940.76
2017-09-14T02:48:21.665Z,940.81
2017-09-14T02:49:21.651Z,940.74
2017-09-14T02:50:21.642Z,940.82
2017-09-14T02:51:21.636Z,940.78
2017-09-14T02:52:21.626Z,940.84
2017-09-14T02:53:21.624Z,940.89
2017-09-14T02:54:21.609Z,940.8
2017-09-14T02:55:21.600Z,940.71
2017-09-14T02:56:21.591Z,940.76
2017-09-14T02:57:21.582Z,940.59
2017-09-14T02:58:21.575Z,940.61
2017-09-14T02:59:21.566Z,940.59
2017-09-14T03:00:21.557Z,940.5
2017-09-14T03:01:21.548Z,940.6
2017-09-14T03:02:21.539Z,940.58
2017-09-14T03:03:21.531Z,940.58
2017-09-14T03:04:21.523Z,940.58
2017-09-14T03:05:21.531Z,940.62
2017-09-14T03:06:21.505Z,940.51
2017-09-14T03:07:21.496Z,940.48
2017-09-14T03:08:21.488Z,940.46
2017-09-14T03:09:21.478Z,940.46
2017-09-14T03:10:21.470Z,940.44
2017-09-14T03:11:21.471Z,940.49
2017-09-14T03:12:21.504Z,940.53
2017-09-14T03:13:21.456Z,940.63
2017-09-14T03:14:21.436Z,940.56
2017-09-14T03:15:21.428Z,940.52
2017-09-14T03:16:21.420Z,940.6
2017-09-14T03:17:21.410Z,940.65
2017-09-14T03:18:21.414Z,940.7
2017-09-14T03:19:21.392Z,940.75
2017-09-14T03:20:21.384Z,940.63
2017-09-14T03:21:21.376Z,940.67
2017-09-14T03:22:21.367Z,940.77
2017-09-14T03:23:21.358Z,940.77
2017-09-14T03:24:21.368Z,940.79
2017-09-14T03:25:21.345Z,940.8
2017-09-14T03:26:21.332Z,940.79
2017-09-14T03:27:21.323Z,940.75
2017-09-14T03:28:21.325Z,940.75
2017-09-14T03:29:21.307Z,940.74
2017-09-14T03:30:21.297Z,940.78
2017-09-14T03:31:21.288Z,940.82
2017-09-14T03:32:21.279Z,940.8
2017-09-14T03:33:21.271Z,940.81
2017-09-14T03:34:21.263Z,940.8
2017-09-14T03:35:21.253Z,940.84
2017-09-14T03:36:21.245Z,940.93
2017-09-14T03:37:21.236Z,940.87
2017-09-14T03:38:21.229Z,940.92
2017-09-14T03:39:21.219Z,940.91
2017-09-14T03:40:21.212Z,940.93
2017-09-14T03:41:21.201Z,940.91
2017-09-14T03:42:21.193Z,940.9
2017-09-14T03:43:21.218Z,940.94
2017-09-14T03:44:21.176Z,941.07
2017-09-14T03:45:21.166Z,941.14
2017-09-14T03:46:21.160Z,941.19
2017-09-14T03:47:21.151Z,941.16
2017-09-14T03:48:21.141Z,941.14
2017-09-14T03:49:21.132Z,941.1
2017-09-14T03:50:21.125Z,941.31
2017-09-14T03:51:21.115Z,941.25
2017-09-14T03:52:21.607Z,941.28
2017-09-14T03:53:21.098Z,941.23
2017-09-14T03:54:21.090Z,941.35
2017-09-14T03:55:21.082Z,941.36
2017-09-14T03:56:21.072Z,941.4
2017-09-14T03:57:21.063Z,941.4
2017-09-14T03:58:21.056Z,941.42
2017-09-14T03:59:21.046Z,941.48
2017-09-14T04:00:21.038Z,941.53
2017-09-14T04:01:21.029Z,941.49
2017-09-14T04:02:21.027Z,941.46
2017-09-14T04:03:21.012Z,941.45
2017-09-14T04:04:21.020Z,941.5
2017-09-14T04:05:20.994Z,941.58
2017-09-14T04:06:21.036Z,941.56
2017-09-14T04:07:20.983Z,941.55
2017-09-14T04:08:20.968Z,941.57
2017-09-14T04:09:20.960Z,941.54
2017-09-14T04:10:20.950Z,941.56
2017-09-14T04:11:20.942Z,941.62
2017-09-14T04:12:20.934Z,941.67
2017-09-14T04:13:20.925Z,941.79
2017-09-14T04:14:20.995Z,941.68
2017-09-14T04:15:20.909Z,941.59
2017-09-14T04:16:20.908Z,941.58
2017-09-14T04:17:20.892Z,941.65
2017-09-14T04:18:20.883Z,941.66
2017-09-14T04:19:20.874Z,941.67
2017-09-14T04:20:20.866Z,941.55
2017-09-14T04:21:20.856Z,941.52
2017-09-14T04:22:20.847Z,941.58
2017-09-14T04:23:20.841Z,941.54
2017-09-14T04:24:20.831Z,941.53
2017-09-14T04:25:20.821Z,941.38
2017-09-14T04:26:20.814Z,941.36
2017-09-14T04:27:20.805Z,941.24
2017-09-14T04:28:20.796Z,941.36
2017-09-14T04:29:20.787Z,941.54
2017-09-14T04:30:20.779Z,941.49
2017-09-14T04:31:20.770Z,941.45
2017-09-14T04:32:20.760Z,941.51
2017-09-14T04:33:20.751Z,941.44
2017-09-14T04:34:20.743Z,941.46
2017-09-14T04:35:20.735Z,941.45
2017-09-14T04:36:20.726Z,941.5
2017-09-14T04:37:20.717Z,941.58
2017-09-14T04:38:20.708Z,941.55
2017-09-14T04:39:20.700Z,941.6
2017-09-14T04:40:20.691Z,941.59
2017-09-14T04:41:20.683Z,941.64
2017-09-14T04:42:20.674Z,941.71
2017-09-14T04:43:20.664Z,941.67
2017-09-14T04:44:20.657Z,941.68
2017-09-14T04:45:20.647Z,941.72
2017-09-14T04:46:20.638Z,941.74
2017-09-14T04:47:20.628Z,941.69
2017-09-14T04:48:20.634Z,941.71
2017-09-14T04:49:20.613Z,941.75
2017-09-14T04:50:20.604Z,941.7
2017-09-14T04:51:20.595Z,941.72
2017-09-14T04:52:20.586Z,941.65
2017-09-14T04:53:20.589Z,941.65
2017-09-14T04:54:20.568Z,941.72
2017-09-14T04:55:20.574Z,941.7
2017-09-14T04:56:20.550Z,941.65
2017-09-14T04:57:20.543Z,941.66
2017-09-14T04:58:20.533Z,941.72
2017-09-14T04:59:20.524Z,941.7
2017-09-14T05:00:20.515Z,941.84
2017-09-14T05:01:20.507Z,941.79
2017-09-14T05:02:20.497Z,941.82
2017-09-14T05:03:20.488Z,941.71
2017-09-14T05:04:20.496Z,941.6
2017-09-14T05:05:20.470Z,941.56
2017-09-14T05:06:20.461Z,941.56
2017-09-14T05:07:20.454Z,941.6
2017-09-14T05:08:20.447Z,941.62
2017-09-14T05:09:20.435Z,941.55
2017-09-14T05:10:20.426Z,941.45
2017-09-14T05:11:20.417Z,941.55
2017-09-14T05:12:20.413Z,941.54
2017-09-14T05:13:20.398Z,941.55
2017-09-14T05:14:20.393Z,941.58
2017-09-14T05:15:20.383Z,941.54
2017-09-14T05:16:20.374Z,941.54
2017-09-14T05:17:20.365Z,941.57
2017-09-14T05:18:20.355Z,941.58
2017-09-14T05:19:20.348Z,941.56
2017-09-14T05:20:20.337Z,941.61
2017-09-14T05:21:20.332Z,941.49
2017-09-14T05:22:20.320Z,941.59
2017-09-14T05:23:20.310Z,941.48
2017-09-14T05:24:20.301Z,941.59
2017-09-14T05:25:20.292Z,941.56
2017-09-14T05:26:20.287Z,941.61
2017-09-14T05:27:20.274Z,941.68
2017-09-14T05:28:20.266Z,941.66
2017-09-14T05:29:20.257Z,941.65
2017-09-14T05:30:20.249Z,941.62
2017-09-14T05:31:20.239Z,941.59
2017-09-14T05:32:20.230Z,941.65
2017-09-14T05:33:20.221Z,941.68
2017-09-14T05:34:20.211Z,941.62
2017-09-14T05:35:20.204Z,941.62
2017-09-14T05:36:20.194Z,941.68
2017-09-14T05:37:20.185Z,941.64
2017-09-14T05:38:20.175Z,941.64
2017-09-14T05:39:20.166Z,941.66
2017-09-14T05:40:20.159Z,941.72
2017-09-14T05:41:20.150Z,941.7
2017-09-14T05:42:20.141Z,941.69
2017-09-14T05:43:20.133Z,941.79
2017-09-14T05:44:20.124Z,941.79
2017-09-14T05:45:20.113Z,941.78
2017-09-14T05:46:20.104Z,941.8
2017-09-14T05:47:20.096Z,941.87
2017-09-14T05:48:20.088Z,941.76
2017-09-14T05:49:20.078Z,941.76
2017-09-14T05:50:20.070Z,941.81
2017-09-14T05:51:20.062Z,941.92
2017-09-14T05:52:20.052Z,941.82
2017-09-14T05:53:20.043Z,941.72
2017-09-14T05:54:20.035Z,941.69
2017-09-14T05:55:20.025Z,941.6
2017-09-14T05:56:20.017Z,941.71
2017-09-14T05:57:20.008Z,941.72
2017-09-14T05:58:20.001Z,941.75
2017-09-14T05:59:19.990Z,941.73
2017-09-14T06:00:19.988Z,941.79
2017-09-14T06:01:19.972Z,941.78
2017-09-14T06:02:19.964Z,941.81
2017-09-14T06:03:19.956Z,941.85
2017-09-14T06:04:19.947Z,941.87
2017-09-14T06:05:19.938Z,941.88
2017-09-14T06:06:19.929Z,941.86
2017-09-14T06:07:19.927Z,941.86
2017-09-14T06:08:19.911Z,941.86
2017-09-14T06:09:19.905Z,941.84
2017-09-14T06:10:19.894Z,941.87
2017-09-14T06:11:19.884Z,941.84
2017-09-14T06:12:19.876Z,941.86
2017-09-14T06:13:19.868Z,941.84
2017-09-14T06:14:19.858Z,941.9
2017-09-14T06:15:19.849Z,941.89
2017-09-14T06:16:19.840Z,941.98
2017-09-14T06:17:19.832Z,941.92
2017-09-14T06:18:19.823Z,941.89
2017-09-14T06:19:19.813Z,941.89
2017-09-14T06:20:19.805Z,941.91
2017-09-14T06:21:19.796Z,941.94
2017-09-14T06:22:19.786Z,941.91
2017-09-14T06:23:19.778Z,941.91
2017-09-14T06:24:19.770Z,941.96
2017-09-14T06:25:19.761Z,941.96
2017-09-14T06:26:19.754Z,941.96
2017-09-14T06:27:19.744Z,942.03
2017-09-14T06:28:19.735Z,942.04
2017-09-14T06:29:19.726Z,942.03
2017-09-14T06:30:19.718Z,941.96
2017-09-14T06:31:19.710Z,942.04
2017-09-14T06:32:19.701Z,941.91
2017-09-14T06:33:19.694Z,941.96
2017-09-14T06:34:19.704Z,941.89
2017-09-14T06:35:19.674Z,942.02
2017-09-14T06:36:19.664Z,941.97
2017-09-14T06:37:19.666Z,942
2017-09-14T06:38:19.648Z,942.13
2017-09-14T06:39:19.658Z,942.15
2017-09-14T06:40:19.630Z,942.14
2017-09-14T06:41:19.622Z,942.11
2017-09-14T06:42:19.614Z,942.07
2017-09-14T06:43:19.607Z,942.02
2017-09-14T06:44:19.596Z,942.03
2017-09-14T06:45:19.588Z,941.98
2017-09-14T06:46:19.579Z,941.94
2017-09-14T06:47:19.577Z,941.88
2017-09-14T06:48:19.562Z,941.8
2017-09-14T06:49:19.553Z,941.75
2017-09-14T06:50:19.545Z,941.82
2017-09-14T06:51:19.537Z,941.83
2017-09-14T06:52:19.528Z,941.78
2017-09-14T06:53:19.556Z,941.79
2017-09-14T06:54:19.510Z,941.7
2017-09-14T06:55:19.501Z,941.86
2017-09-14T06:56:19.493Z,941.77
2017-09-14T06:57:19.484Z,941.83
2017-09-14T06:58:19.476Z,941.78
2017-09-14T06:59:19.481Z,941.72
2017-09-14T07:00:19.459Z,941.78
2017-09-14T07:01:19.449Z,941.78
2017-09-14T07:02:19.440Z,941.75
2017-09-14T07:03:19.432Z,941.84
2017-09-14T07:04:19.424Z,941.85
2017-09-14T07:05:19.415Z,941.83
2017-09-14T07:06:19.422Z,941.81
2017-09-14T07:07:19.399Z,941.94
2017-09-14T07:08:19.390Z,941.92
2017-09-14T07:09:19.382Z,941.86
2017-09-14T07:10:19.371Z,941.87
2017-09-14T07:11:19.362Z,941.88
2017-09-14T07:12:19.355Z,941.82
2017-09-14T07:13:19.346Z,941.82
2017-09-14T07:14:19.338Z,941.87
2017-09-14T07:15:19.329Z,941.83
2017-09-14T07:16:19.321Z,941.68
2017-09-14T07:17:19.313Z,941.79
2017-09-14T07:18:19.303Z,941.9
2017-09-14T07:19:19.295Z,941.84
2017-09-14T07:20:19.285Z,941.75
2017-09-14T07:21:19.277Z,941.8
2017-09-14T07:22:19.270Z,941.85
2017-09-14T07:23:19.261Z,941.83
2017-09-14T07:24:19.251Z,941.87
2017-09-14T07:25:19.243Z,941.82
2017-09-14T07:26:19.236Z,941.95
2017-09-14T07:27:19.226Z,941.85
2017-09-14T07:28:19.222Z,941.73
2017-09-14T07:29:19.209Z,941.69
2017-09-14T07:30:19.201Z,941.77
2017-09-14T07:31:19.191Z,941.63
2017-09-14T07:32:19.189Z,941.74
2017-09-14T07:33:19.175Z,941.7
2017-09-14T07:34:19.168Z,941.72
2017-09-14T07:35:19.157Z,941.81
2017-09-14T07:36:19.151Z,941.7
2017-09-14T07:37:19.142Z,941.84
2017-09-14T07:38:19.134Z,941.88
2017-09-14T07:39:19.125Z,941.89
2017-09-14T07:40:19.172Z,941.78
2017-09-14T07:41:19.110Z,941.84
2017-09-14T07:42:19.160Z,941.75
2017-09-14T07:43:19.092Z,941.8
2017-09-14T07:44:19.085Z,941.68
2017-09-14T07:45:19.076Z,941.72
2017-09-14T07:46:19.067Z,941.67
2017-09-14T07:47:19.060Z,941.61
2017-09-14T07:48:19.050Z,941.67
2017-09-14T07:49:19.043Z,941.62
2017-09-14T07:50:19.033Z,941.73
2017-09-14T07:51:19.027Z,941.8
2017-09-14T07:52:19.019Z,941.75
2017-09-14T07:53:19.007Z,941.79
2017-09-14T07:54:19.001Z,941.81
2017-09-14T07:55:19.011Z,941.78
2017-09-14T07:56:18.985Z,941.85
2017-09-14T07:57:18.977Z,941.72
2017-09-14T07:58:18.969Z,941.75
2017-09-14T07:59:18.961Z,941.8
2017-09-14T08:00:18.957Z,941.73
2017-09-14T08:01:18.946Z,941.58
2017-09-14T08:02:18.939Z,941.6
2017-09-14T08:03:18.932Z,941.59
2017-09-14T08:04:18.923Z,941.79
2017-09-14T08:05:18.916Z,941.86
2017-09-14T08:06:18.909Z,941.96
2017-09-14T08:07:18.901Z,941.86
2017-09-14T08:08:18.894Z,941.89
2017-09-14T08:09:18.885Z,941.83
2017-09-14T08:10:18.879Z,941.98
2017-09-14T08:11:18.869Z,941.86
2017-09-14T08:12:18.863Z,941.94
2017-09-14T08:13:18.856Z,941.84
2017-09-14T08:14:18.849Z,941.93
2017-09-14T08:15:18.841Z,941.95
2017-09-14T08:16:18.833Z,941.91
2017-09-14T08:17:18.827Z,941.96
2017-09-14T08:18:18.818Z,941.93
2017-09-14T08:19:18.811Z,941.88
2017-09-14T08:20:18.804Z,941.94
2017-09-14T08:21:18.797Z,941.9
2017-09-14T08:22:18.790Z,941.94
2017-09-14T08:23:18.780Z,941.9
2017-09-14T08:24:18.774Z,941.92
2017-09-14T08:25:18.766Z,941.77
2017-09-14T08:26:18.759Z,941.83
2017-09-14T08:27:18.752Z,941.84
2017-09-14T08:28:18.745Z,941.97
2017-09-14T08:29:18.738Z,941.95
2017-09-14T08:30:18.750Z,942.04
2017-09-14T08:31:18.722Z,941.99
2017-09-14T08:32:18.715Z,941.98
2017-09-14T08:33:18.707Z,942.07
2017-09-14T08:34:18.700Z,942.05
2017-09-14T08:35:18.694Z,942.11
2017-09-14T08:36:18.687Z,942.18
2017-09-14T08:37:18.678Z,942.09
2017-09-14T08:38:18.671Z,942.14
2017-09-14T08:39:18.664Z,942.09
2017-09-14T08:40:18.657Z,942.01
2017-09-14T08:41:18.666Z,942.03
2017-09-14T08:42:18.642Z,942.05
2017-09-14T08:43:18.635Z,942.03
2017-09-14T08:44:18.625Z,941.94
2017-09-14T08:45:18.619Z,942.05
2017-09-14T08:46:18.611Z,942.04
2017-09-14T08:47:18.604Z,942.13
2017-09-14T08:48:18.615Z,942.13
2017-09-14T08:49:18.588Z,942.01
2017-09-14T08:50:18.581Z,942.13
2017-09-14T08:51:18.574Z,942.07
2017-09-14T08:52:18.565Z,942.11
2017-09-14T08:53:18.558Z,942.05
2017-09-14T08:54:18.552Z,942.1
2017-09-14T08:55:18.556Z,942.15
2017-09-14T08:56:18.535Z,942.17
2017-09-14T08:57:18.528Z,942.19
2017-09-14T08:58:18.521Z,942.17
2017-09-14T08:59:18.512Z,942.19
2017-09-14T09:00:18.522Z,942.14
2017-09-14T09:01:18.497Z,942.24
2017-09-14T09:02:18.491Z,942.24
2017-09-14T09:03:18.482Z,942.25
2017-09-14T09:04:18.475Z,942.23
2017-09-14T09:05:18.467Z,942.28
2017-09-14T09:06:18.459Z,942.32
2017-09-14T09:07:18.452Z,942.17
2017-09-14T09:08:18.445Z,942.2
2017-09-14T09:09:18.437Z,942.12
2017-09-14T09:10:18.433Z,941.91
2017-09-14T09:11:18.422Z,942.16
2017-09-14T09:12:18.416Z,942.24
2017-09-14T09:13:18.407Z,942.24
2017-09-14T09:14:18.397Z,942.33
2017-09-14T09:15:18.391Z,942.37
2017-09-14T09:16:18.384Z,942.34
2017-09-14T09:17:24.484Z,942.34
2017-09-14T09:18:18.369Z,942.51
2017-09-14T09:19:18.361Z,942.59
2017-09-14T09:20:18.354Z,942.69
2017-09-14T09:21:18.346Z,942.63
2017-09-14T09:22:18.338Z,942.58
2017-09-14T09:23:18.332Z,942.57
2017-09-14T09:24:18.324Z,942.62
2017-09-14T09:25:18.330Z,942.6
2017-09-14T09:26:18.321Z,942.58
2017-09-14T09:27:18.300Z,942.57
2017-09-14T09:28:18.292Z,942.5
2017-09-14T09:29:18.285Z,942.48
2017-09-14T09:30:18.277Z,942.45
2017-09-14T09:31:18.271Z,942.53
2017-09-14T09:32:18.261Z,942.37
2017-09-14T09:33:18.254Z,942.44
2017-09-14T09:34:18.246Z,942.4
2017-09-14T09:35:18.240Z,942.31
2017-09-14T09:36:18.233Z,942.29
2017-09-14T09:37:18.228Z,942.23
2017-09-14T09:38:18.217Z,942.32
2017-09-14T09:39:18.209Z,942.39
2017-09-14T09:40:18.202Z,942.27
2017-09-14T09:41:18.195Z,942.46
2017-09-14T09:42:18.186Z,942.49
2017-09-14T09:43:18.179Z,942.58
2017-09-14T09:44:18.181Z,942.64
2017-09-14T09:45:18.164Z,942.51
2017-09-14T09:46:18.155Z,942.66
2017-09-14T09:47:18.147Z,942.67
2017-09-14T09:48:18.140Z,942.7
2017-09-14T09:49:18.135Z,942.68
2017-09-14T09:50:18.128Z,942.78
2017-09-14T09:51:18.116Z,942.7
2017-09-14T09:52:18.115Z,942.81
2017-09-14T09:53:18.101Z,942.75
2017-09-14T09:54:18.093Z,942.74
2017-09-14T09:55:18.085Z,942.69
2017-09-14T09:56:18.078Z,942.6
2017-09-14T09:57:18.107Z,942.57
2017-09-14T09:58:18.060Z,942.52
2017-09-14T09:59:18.051Z,942.48
2017-09-14T10:00:18.066Z,942.47
2017-09-14T10:01:18.035Z,942.43
2017-09-14T10:02:18.029Z,942.66
2017-09-14T10:03:18.020Z,942.55
2017-09-14T10:04:18.012Z,942.47
2017-09-14T10:05:18.019Z,942.62
2017-09-14T10:06:18.001Z,942.59
2017-09-14T10:07:17.986Z,942.53
2017-09-14T10:08:17.978Z,942.59
2017-09-14T10:09:17.969Z,942.7
2017-09-14T10:10:17.983Z,942.69
2017-09-14T10:11:17.952Z,942.74
2017-09-14T10:12:17.965Z,942.8
2017-09-14T10:13:17.935Z,942.82
2017-09-14T10:14:17.927Z,942.91
2017-09-14T10:15:17.920Z,942.92
2017-09-14T10:16:17.910Z,942.93
2017-09-14T10:17:17.902Z,943
2017-09-14T10:18:17.894Z,942.92
2017-09-14T10:19:17.885Z,942.98
2017-09-14T10:20:17.877Z,943
2017-09-14T10:21:17.881Z,942.96
2017-09-14T10:22:17.859Z,943.02
2017-09-14T10:23:17.851Z,942.95
2017-09-14T10:24:17.856Z,942.94
2017-09-14T10:25:17.834Z,942.9
2017-09-14T10:26:17.826Z,942.89
2017-09-14T10:27:17.817Z,942.85
2017-09-14T10:28:17.822Z,942.87
2017-09-14T10:29:17.801Z,942.86
2017-09-14T10:30:17.803Z,942.85
2017-09-14T10:31:17.816Z,942.82
2017-09-14T10:32:17.776Z,942.74
2017-09-14T10:33:17.768Z,942.74
2017-09-14T10:34:17.758Z,942.72
2017-09-14T10:35:17.752Z,942.77
2017-09-14T10:36:17.743Z,942.72
2017-09-14T10:37:17.734Z,942.74
2017-09-14T10:38:17.731Z,942.72
2017-09-14T10:39:17.717Z,942.77
2017-09-14T10:40:17.709Z,942.78
2017-09-14T10:41:17.700Z,942.87
2017-09-14T10:42:17.702Z,942.91
2017-09-14T10:43:17.708Z,942.86
2017-09-14T10:44:17.677Z,942.8
2017-09-14T10:45:17.686Z,942.81
2017-09-14T10:46:17.660Z,942.84
2017-09-14T10:47:17.653Z,942.91
2017-09-14T10:48:17.645Z,942.9
2017-09-14T10:49:17.640Z,942.98
2017-09-14T10:50:17.634Z,943.03
2017-09-14T10:51:17.645Z,943.06
2017-09-14T10:52:17.708Z,943.02
2017-09-14T10:53:17.671Z,942.98
2017-09-14T10:54:17.642Z,942.91
2017-09-14T10:55:17.587Z,942.88
2017-09-14T10:56:17.640Z,942.88
2017-09-14T10:57:17.569Z,942.85
2017-09-14T10:58:17.581Z,942.88
2017-09-14T10:59:17.630Z,942.8
2017-09-14T11:00:17.575Z,942.76
2017-09-14T11:01:17.561Z,942.79
2017-09-14T11:02:17.560Z,942.77
2017-09-14T11:03:17.550Z,942.72
2017-09-14T11:04:17.528Z,942.65
2017-09-14T11:05:17.562Z,942.64
2017-09-14T11:06:17.549Z,942.65
2017-09-14T11:07:17.488Z,942.69
2017-09-14T11:08:17.479Z,942.66
2017-09-14T11:09:17.471Z,942.63
2017-09-14T11:10:17.463Z,942.63
2017-09-14T11:11:17.455Z,942.58
2017-09-14T11:12:17.446Z,942.68
2017-09-14T11:13:17.439Z,942.8
2017-09-14T11:14:17.452Z,942.95
2017-09-14T11:15:17.421Z,942.89
2017-09-14T11:16:17.413Z,942.94
2017-09-14T11:17:17.405Z,942.95
2017-09-14T11:18:17.395Z,942.9
2017-09-14T11:19:17.388Z,942.96
2017-09-14T11:20:17.379Z,942.98
2017-09-14T11:21:17.391Z,942.93
2017-09-14T11:22:17.361Z,942.99
2017-09-14T11:23:17.353Z,942.96
2017-09-14T11:24:17.344Z,942.94
2017-09-14T11:25:17.335Z,942.93
2017-09-14T11:26:17.328Z,942.85
2017-09-14T11:27:17.318Z,942.98
2017-09-14T11:28:17.319Z,942.93
2017-09-14T11:29:17.299Z,943.03
2017-09-14T11:30:17.290Z,942.95
2017-09-14T11:31:17.281Z,942.98
2017-09-14T11:32:17.272Z,943.08
2017-09-14T11:33:17.262Z,943.1
2017-09-14T11:34:17.255Z,943.17
2017-09-14T11:35:17.244Z,943.17
2017-09-14T11:36:17.235Z,943.04
2017-09-14T11:37:17.225Z,943.09
2017-09-14T11:38:17.220Z,943.14
2017-09-14T11:39:17.208Z,943.14
2017-09-14T11:40:17.198Z,943.19
2017-09-14T11:41:17.192Z,943.31
2017-09-14T11:42:17.179Z,943.21
2017-09-14T11:43:17.171Z,943.22
2017-09-14T11:44:17.161Z,943.15
2017-09-14T11:45:17.150Z,943.17
2017-09-14T11:46:17.142Z,943.19
2017-09-14T11:47:17.131Z,943.15
2017-09-14T11:48:17.144Z,943.04
2017-09-14T11:49:17.114Z,943.13
2017-09-14T11:50:17.112Z,943.12
2017-09-14T11:51:17.094Z,943.1
2017-09-14T11:52:17.085Z,943.07
2017-09-14T11:53:17.076Z,943.04
2017-09-14T11:54:17.067Z,943.01
2017-09-14T11:55:17.056Z,943.06
2017-09-14T11:56:17.047Z,943.07
2017-09-14T11:57:17.038Z,942.95
2017-09-14T11:58:17.028Z,943
2017-09-14T11:59:17.018Z,942.93
2017-09-14T12:00:17.011Z,942.87
2017-09-14T12:01:17.002Z,942.74
2017-09-14T12:02:16.992Z,942.91
2017-09-14T12:03:16.982Z,943.12
2017-09-14T12:04:16.974Z,943.11
2017-09-14T12:05:16.964Z,943.13
2017-09-14T12:06:16.954Z,943.26
2017-09-14T12:07:16.945Z,943.33
2017-09-14T12:08:16.937Z,943.2
2017-09-14T12:09:16.927Z,943.23
2017-09-14T12:10:16.919Z,943.19
2017-09-14T12:11:16.909Z,943.13
2017-09-14T12:12:16.900Z,943.11
2017-09-14T12:13:16.889Z,943.18
2017-09-14T12:14:16.893Z,943.23
2017-09-14T12:15:16.872Z,943.27
2017-09-14T12:16:16.862Z,943.35
2017-09-14T12:17:16.852Z,943.4
2017-09-14T12:18:16.844Z,943.38
2017-09-14T12:19:16.835Z,943.35
2017-09-14T12:20:16.827Z,943.3
2017-09-14T12:21:16.819Z,943.26
2017-09-14T12:22:16.809Z,943.21
2017-09-14T12:23:16.799Z,943.17
2017-09-14T12:24:16.790Z,943.34
2017-09-14T12:25:16.811Z,943.33
2017-09-14T12:26:16.773Z,943.45
2017-09-14T12:27:16.763Z,943.46
2017-09-14T12:28:16.754Z,943.58
2017-09-14T12:29:16.746Z,943.58
2017-09-14T12:30:16.738Z,943.53
2017-09-14T12:31:16.727Z,943.64